createdAt,value
2018-04-17T00:01:51.341Z,12.30
2018-04-17T00:04:19.668Z,12.29
2018-04-17T00:06:47.992Z,12.29
2018-04-17T00:09:16.330Z,12.27
2018-04-17T00:11:44.648Z,12.31
2018-04-17T00:14:13.960Z,12.34
2018-04-17T00:16:42.293Z,12.28
2018-04-17T00:19:10.709Z,12.19
2018-04-17T00:21:39.055Z,12.18
2018-04-17T00:24:07.366Z,12.23
2018-04-17T00:26:35.718Z,12.23
2018-04-17T00:29:04.116Z,12.20
2018-04-17T00:31:32.457Z,12.26
2018-04-17T00:34:00.770Z,12.22
2018-04-17T00:36:29.156Z,12.27
2018-04-17T00:38:57.530Z,12.34
2018-04-17T00:41:25.861Z,12.33
2018-04-17T00:43:54.165Z,12.34
2018-04-17T00:46:22.514Z,12.34
2018-04-17T00:48:50.827Z,12.27
2018-04-17T00:51:19.212Z,12.28
2018-04-17T00:53:53.482Z,12.22
2018-04-17T00:56:21.821Z,12.32
2018-04-17T00:58:50.131Z,12.23
2018-04-17T01:01:18.469Z,12.28
2018-04-17T01:03:46.837Z,12.22
2018-04-17T01:06:15.169Z,12.25
2018-04-17T01:08:43.473Z,12.22
2018-04-17T01:11:11.875Z,12.19
2018-04-17T01:13:40.192Z,12.26
2018-04-17T01:16:08.537Z,12.22
2018-04-17T01:18:36.845Z,12.17
2018-04-17T01:21:05.184Z,12.15
2018-04-17T01:23:33.565Z,12.22
2018-04-17T01:26:01.936Z,12.25
2018-04-17T01:28:30.320Z,12.30
2018-04-17T01:30:58.657Z,12.27
2018-04-17T01:33:27.010Z,12.29
2018-04-17T01:35:55.350Z,12.38
2018-04-17T01:38:23.668Z,12.34
2018-04-17T01:40:52.024Z,12.33
2018-04-17T01:43:20.350Z,12.34
2018-04-17T01:45:48.754Z,12.33
2018-04-17T01:48:17.108Z,12.21
2018-04-17T01:50:45.512Z,12.20
2018-04-17T01:53:13.867Z,12.13
2018-04-17T01:55:42.266Z,12.13
2018-04-17T01:58:10.615Z,12.11
2018-04-17T02:00:38.940Z,12.08
2018-04-17T02:03:07.300Z,12.14
2018-04-17T02:05:35.682Z,12.18
2018-04-17T02:08:04.062Z,12.13
2018-04-17T02:10:32.378Z,12.13
2018-04-17T02:13:00.710Z,12.11
2018-04-17T02:15:29.034Z,12.07
2018-04-17T02:17:57.516Z,12.04
2018-04-17T02:20:25.822Z,12.06
2018-04-17T02:22:54.233Z,12.18
2018-04-17T02:25:22.613Z,12.20
2018-04-17T02:27:50.973Z,12.16
2018-04-17T02:30:19.377Z,12.02
2018-04-17T02:32:47.758Z,12.06
2018-04-17T02:35:16.090Z,12.14
2018-04-17T02:37:44.402Z,12.10
2018-04-17T02:40:12.785Z,12.03
2018-04-17T02:42:41.153Z,12.08
2018-04-17T02:45:09.497Z,12.10
2018-04-17T02:47:37.864Z,12.05
2018-04-17T02:50:06.184Z,11.99
2018-04-17T02:52:34.524Z,11.92
2018-04-17T02:55:02.849Z,11.94
2018-04-17T02:57:31.231Z,11.94
2018-04-17T02:59:59.561Z,11.95
2018-04-17T03:02:27.888Z,11.93
2018-04-17T03:04:56.306Z,11.92
2018-04-17T03:07:24.609Z,11.93
2018-04-17T03:09:53.018Z,11.93
2018-04-17T03:12:21.389Z,11.89
2018-04-17T03:14:49.765Z,11.89
2018-04-17T03:17:18.092Z,11.91
2018-04-17T03:19:46.393Z,11.88
2018-04-17T03:22:14.772Z,11.81
2018-04-17T03:24:43.089Z,11.81
2018-04-17T03:27:11.434Z,11.75
2018-04-17T03:29:39.836Z,11.64
2018-04-17T03:32:08.193Z,11.61
2018-04-17T03:34:36.493Z,11.63
2018-04-17T03:37:05.904Z,11.53
2018-04-17T03:39:34.214Z,11.49
2018-04-17T03:42:02.554Z,11.37
2018-04-17T03:44:30.913Z,11.29
2018-04-17T03:46:59.253Z,11.23
2018-04-17T03:49:27.568Z,11.23
2018-04-17T03:51:56.056Z,11.18
2018-04-17T03:54:24.373Z,11.14
2018-04-17T03:56:52.666Z,11.04
2018-04-17T03:59:20.991Z,11.10
2018-04-17T04:01:49.298Z,11.05
2018-04-17T04:04:17.627Z,10.91
2018-04-17T04:06:45.936Z,10.69
2018-04-17T04:09:14.272Z,10.71
2018-04-17T04:11:42.583Z,10.62
2018-04-17T04:14:10.900Z,10.60
2018-04-17T04:16:50.898Z,10.53
2018-04-17T04:19:31.357Z,10.49
2018-04-17T04:22:11.434Z,10.45
2018-04-17T04:24:51.748Z,10.32
2018-04-17T04:27:20.060Z,10.29
2018-04-17T04:29:48.432Z,10.31
2018-04-17T04:32:16.753Z,10.18
2018-04-17T04:34:45.099Z,10.06
2018-04-17T04:37:13.408Z,9.97
2018-04-17T04:39:41.908Z,10.01
2018-04-17T04:42:10.210Z,10.32
2018-04-17T04:44:38.616Z,10.40
2018-04-17T04:47:06.946Z,10.38
2018-04-17T04:49:35.266Z,10.34
2018-04-17T04:52:03.581Z,10.37
2018-04-17T04:54:31.907Z,10.49
2018-04-17T04:57:00.298Z,10.38
2018-04-17T04:59:28.673Z,10.48
2018-04-17T05:01:57.045Z,10.66
2018-04-17T05:04:25.409Z,10.91
2018-04-17T05:06:53.737Z,10.97
2018-04-17T05:09:22.067Z,11.08
2018-04-17T05:11:50.409Z,11.06
2018-04-17T05:14:18.749Z,11.07
2018-04-17T05:16:47.099Z,11.13
2018-04-17T05:19:15.477Z,11.11
2018-04-17T05:21:43.817Z,11.28
2018-04-17T05:24:12.137Z,11.17
2018-04-17T05:26:40.517Z,11.24
2018-04-17T05:29:08.932Z,11.23
2018-04-17T05:31:37.250Z,11.30
2018-04-17T05:34:05.640Z,11.32
2018-04-17T05:36:33.988Z,11.36
2018-04-17T05:39:02.288Z,11.45
2018-04-17T05:41:30.644Z,11.49
2018-04-17T05:43:59.025Z,11.48
2018-04-17T05:46:27.366Z,11.62
2018-04-17T05:48:55.670Z,11.59
2018-04-17T05:51:24.111Z,11.62
2018-04-17T05:53:52.470Z,11.62
2018-04-17T05:56:20.818Z,11.69
2018-04-17T05:58:49.160Z,11.76
2018-04-17T06:01:17.465Z,11.77
2018-04-17T06:03:45.801Z,11.89
2018-04-17T06:06:14.113Z,11.94
2018-04-17T06:08:42.461Z,12.01
2018-04-17T06:11:10.789Z,12.03
2018-04-17T06:13:39.235Z,12.14
2018-04-17T06:16:07.517Z,12.25
2018-04-17T06:18:35.945Z,12.30
2018-04-17T06:21:04.258Z,12.37
2018-04-17T06:23:32.614Z,12.39
2018-04-17T06:26:01.029Z,12.52
2018-04-17T06:28:29.516Z,12.59
2018-04-17T06:30:57.846Z,12.62
2018-04-17T06:33:26.199Z,12.65
2018-04-17T06:35:54.508Z,12.75
2018-04-17T06:38:22.866Z,12.95
2018-04-17T06:40:51.164Z,13.00
2018-04-17T06:43:19.509Z,13.02
2018-04-17T06:45:47.821Z,13.05
2018-04-17T06:48:16.161Z,13.14
2018-04-17T06:50:44.481Z,13.22
2018-04-17T06:53:13.048Z,13.28
2018-04-17T06:55:41.383Z,13.26
2018-04-17T06:58:09.752Z,13.42
2018-04-17T07:00:38.029Z,13.47
2018-04-17T07:03:06.339Z,13.52
2018-04-17T07:05:34.673Z,13.54
2018-04-17T07:08:02.986Z,13.55
2018-04-17T07:10:31.361Z,13.69
2018-04-17T07:12:59.682Z,13.67
2018-04-17T07:15:28.004Z,13.68
2018-04-17T07:17:56.314Z,13.72
2018-04-17T07:20:24.690Z,13.87
2018-04-17T07:22:53.002Z,13.90
2018-04-17T07:25:21.349Z,13.94
2018-04-17T07:27:49.666Z,14.08
2018-04-17T07:30:18.005Z,14.09
2018-04-17T07:32:46.317Z,14.09
2018-04-17T07:35:14.756Z,14.19
2018-04-17T07:37:43.092Z,14.18
2018-04-17T07:40:11.436Z,14.35
2018-04-17T07:42:39.757Z,14.39
2018-04-17T07:45:08.188Z,14.30
2018-04-17T07:47:36.538Z,14.25
2018-04-17T07:50:05.628Z,14.42
2018-04-17T07:52:33.954Z,14.55
2018-04-17T07:55:02.300Z,14.72
2018-04-17T07:57:30.643Z,14.82
2018-04-17T07:59:58.989Z,14.85
2018-04-17T08:02:27.323Z,14.88
2018-04-17T08:04:55.672Z,15.02
2018-04-17T08:07:23.978Z,15.01
2018-04-17T08:09:52.315Z,15.03
2018-04-17T08:12:20.617Z,15.00
2018-04-17T08:14:49.013Z,15.00
2018-04-17T08:17:17.325Z,15.09
2018-04-17T08:19:45.626Z,15.15
2018-04-17T08:22:13.957Z,15.23
2018-04-17T08:24:42.272Z,15.38
2018-04-17T08:27:10.604Z,15.27
2018-04-17T08:29:38.908Z,15.40
2018-04-17T08:32:07.252Z,15.37
2018-04-17T08:34:35.660Z,15.51
2018-04-17T08:37:04.026Z,15.53
2018-04-17T08:39:32.389Z,15.99
2018-04-17T08:42:00.869Z,15.90
2018-04-17T08:44:29.249Z,15.93
2018-04-17T08:46:57.590Z,15.89
2018-04-17T08:49:25.907Z,15.81
2018-04-17T08:51:54.285Z,16.00
2018-04-17T08:54:22.663Z,15.93
2018-04-17T08:56:51.005Z,15.96
2018-04-17T08:59:19.328Z,15.92
2018-04-17T09:01:47.669Z,16.30
2018-04-17T09:04:16.068Z,16.41
2018-04-17T09:06:44.407Z,16.52
2018-04-17T09:09:12.717Z,16.83
2018-04-17T09:11:41.107Z,17.09
2018-04-17T09:14:09.413Z,16.99
2018-04-17T09:16:37.766Z,16.53
2018-04-17T09:19:06.081Z,16.71
2018-04-17T09:21:34.421Z,16.74
2018-04-17T09:24:02.748Z,16.76
2018-04-17T09:26:31.072Z,17.06
2018-04-17T09:28:59.437Z,16.71
2018-04-17T09:31:27.819Z,16.51
2018-04-17T09:33:56.137Z,16.83
2018-04-17T09:36:24.449Z,17.23
2018-04-17T09:38:52.791Z,17.42
2018-04-17T09:41:21.136Z,17.67
2018-04-17T09:43:49.502Z,17.89
2018-04-17T09:46:17.894Z,17.80
2018-04-17T09:48:46.215Z,18.02
2018-04-17T09:51:14.552Z,17.90
2018-04-17T09:53:42.886Z,17.94
2018-04-17T09:56:11.206Z,18.07
2018-04-17T09:58:39.562Z,17.83
2018-04-17T10:01:13.465Z,18.20
2018-04-17T10:03:41.797Z,18.46
2018-04-17T10:06:10.106Z,18.41
2018-04-17T10:08:38.445Z,18.64
2018-04-17T10:11:06.794Z,18.73
2018-04-17T10:13:35.121Z,19.35
2018-04-17T10:16:03.433Z,19.34
2018-04-17T10:18:31.813Z,19.23
2018-04-17T10:21:00.129Z,19.32
2018-04-17T10:23:28.456Z,19.08
2018-04-17T10:25:56.779Z,19.25
2018-04-17T10:28:25.104Z,19.27
2018-04-17T10:30:53.437Z,19.84
2018-04-17T10:33:21.772Z,19.64
2018-04-17T10:35:50.154Z,20.00
2018-04-17T10:38:18.542Z,19.80
2018-04-17T10:40:46.932Z,19.73
2018-04-17T10:43:15.338Z,19.45
2018-04-17T10:45:43.665Z,20.10
2018-04-17T10:48:12.101Z,20.07
2018-04-17T10:50:40.433Z,20.00
2018-04-17T10:53:08.734Z,19.79
2018-04-17T10:55:37.082Z,20.49
2018-04-17T10:58:05.404Z,20.65
2018-04-17T11:00:33.729Z,21.20
2018-04-17T11:03:02.069Z,21.91
2018-04-17T11:05:31.290Z,21.28
2018-04-17T11:07:59.604Z,21.59
2018-04-17T11:10:28.008Z,21.54
2018-04-17T11:12:56.351Z,21.56
2018-04-17T11:15:24.741Z,21.47
2018-04-17T11:17:53.076Z,21.58
2018-04-17T11:20:21.488Z,21.36
2018-04-17T11:22:49.862Z,21.51
2018-04-17T11:25:39.987Z,21.69
2018-04-17T11:28:24.916Z,21.50
2018-04-17T11:30:53.265Z,21.66
2018-04-17T11:33:21.575Z,21.97
2018-04-17T11:35:49.949Z,22.23
2018-04-17T11:38:18.339Z,22.33
2018-04-17T11:40:46.721Z,22.60
2018-04-17T11:43:15.023Z,22.96
2018-04-17T11:45:43.366Z,23.05
2018-04-17T11:48:11.702Z,22.93
2018-04-17T11:50:40.016Z,23.45
2018-04-17T11:53:08.385Z,23.81
2018-04-17T11:55:36.774Z,24.33
2018-04-17T11:58:05.152Z,25.19
2018-04-17T12:00:33.472Z,24.85
2018-04-17T12:03:01.820Z,24.74
2018-04-17T12:05:30.120Z,23.71
2018-04-17T12:07:58.561Z,25.10
2018-04-17T12:10:26.949Z,23.72
2018-04-17T12:12:55.285Z,25.82
2018-04-17T12:15:23.585Z,25.48
2018-04-17T12:17:51.935Z,25.84
2018-04-17T12:20:20.323Z,26.47
2018-04-17T12:22:48.724Z,27.12
2018-04-17T12:25:17.050Z,27.41
2018-04-17T12:27:45.482Z,27.73
2018-04-17T12:30:13.797Z,27.92
2018-04-17T12:35:17.013Z,27.23
2018-04-17T12:37:45.339Z,26.33
2018-04-17T12:40:13.677Z,26.95
2018-04-17T12:42:41.988Z,27.22
2018-04-17T12:45:10.330Z,26.80
2018-04-17T12:47:38.980Z,27.59
2018-04-17T12:50:07.351Z,27.88
2018-04-17T12:52:35.720Z,27.40
2018-04-17T12:55:04.066Z,29.29
2018-04-17T12:57:32.473Z,26.43
2018-04-17T13:00:00.813Z,24.75
2018-04-17T13:02:29.172Z,24.70
2018-04-17T13:04:57.493Z,25.87
2018-04-17T13:07:25.810Z,27.15
2018-04-17T13:09:54.145Z,28.07
2018-04-17T13:12:22.481Z,29.31
2018-04-17T13:14:50.817Z,30.22
2018-04-17T13:17:19.134Z,29.77
2018-04-17T13:19:47.577Z,30.34
2018-04-17T13:22:16.780Z,29.65
2018-04-17T13:24:45.113Z,28.41
2018-04-17T13:27:13.468Z,25.61
2018-04-17T13:29:41.816Z,24.49
2018-04-17T13:32:10.114Z,23.65
2018-04-17T13:34:38.498Z,22.83
2018-04-17T13:37:06.878Z,22.53
2018-04-17T13:39:35.212Z,22.66
2018-04-17T13:42:03.621Z,22.62
2018-04-17T13:44:32.000Z,22.46
2018-04-17T13:47:00.346Z,22.28
2018-04-17T13:49:29.062Z,22.53
2018-04-17T13:51:57.377Z,23.24
2018-04-17T13:54:25.791Z,23.47
2018-04-17T13:56:54.183Z,26.29
2018-04-17T13:59:22.493Z,27.34
2018-04-17T14:01:51.928Z,27.67
2018-04-17T14:04:20.232Z,27.74
2018-04-17T14:06:48.568Z,28.10
2018-04-17T14:09:16.882Z,26.36
2018-04-17T14:11:45.232Z,24.40
2018-04-17T14:14:13.642Z,24.01
2018-04-17T14:16:41.981Z,26.09
2018-04-17T14:19:10.285Z,27.20
2018-04-17T14:21:38.637Z,27.94
2018-04-17T14:24:06.934Z,28.50
2018-04-17T14:26:35.321Z,29.17
2018-04-17T14:29:03.705Z,30.10
2018-04-17T14:31:32.074Z,29.83
2018-04-17T14:34:00.507Z,30.08
2018-04-17T14:36:28.821Z,30.34
2018-04-17T14:38:57.209Z,31.10
2018-04-17T14:41:25.693Z,30.16
2018-04-17T14:43:54.020Z,28.81
2018-04-17T14:46:22.455Z,28.88
2018-04-17T14:48:50.774Z,28.93
2018-04-17T14:51:19.097Z,29.17
2018-04-17T14:53:47.418Z,27.71
2018-04-17T14:56:15.765Z,29.15
2018-04-17T14:58:44.072Z,28.80
2018-04-17T15:01:12.514Z,26.00
2018-04-17T15:03:40.824Z,28.05
2018-04-17T15:06:09.178Z,29.44
2018-04-17T15:08:37.493Z,29.35
2018-04-17T15:11:05.921Z,29.43
2018-04-17T15:13:34.249Z,27.95
2018-04-17T15:16:02.569Z,28.05
2018-04-17T15:18:30.873Z,27.54
2018-04-17T15:20:59.241Z,25.61
2018-04-17T15:23:27.616Z,28.70
2018-04-17T15:25:55.996Z,27.83
2018-04-17T15:28:24.312Z,28.24
2018-04-17T15:30:52.620Z,28.59
2018-04-17T15:33:20.961Z,28.99
2018-04-17T15:35:49.296Z,28.72
2018-04-17T15:38:17.639Z,28.92
2018-04-17T15:40:45.956Z,28.14
2018-04-17T15:43:14.305Z,28.88
2018-04-17T15:45:42.710Z,29.14
2018-04-17T15:48:11.054Z,28.84
2018-04-17T15:50:39.363Z,28.17
2018-04-17T15:53:07.685Z,28.95
2018-04-17T15:55:36.008Z,28.28
2018-04-17T15:58:04.337Z,28.41
2018-04-17T16:00:32.641Z,28.78
2018-04-17T16:03:00.999Z,28.55
2018-04-17T16:05:29.305Z,28.46
2018-04-17T16:07:57.647Z,28.94
2018-04-17T16:10:26.013Z,28.76
2018-04-17T16:12:54.410Z,28.72
2018-04-17T16:15:22.741Z,28.20
2018-04-17T16:17:51.161Z,27.93
2018-04-17T16:20:19.452Z,27.28
2018-04-17T16:22:47.793Z,27.20
2018-04-17T16:25:16.149Z,27.63
2018-04-17T16:27:44.528Z,27.63
2018-04-17T16:30:12.841Z,27.99
2018-04-17T16:32:41.229Z,27.70
2018-04-17T16:35:09.544Z,27.92
2018-04-17T16:37:37.941Z,26.96
2018-04-17T16:40:06.316Z,26.35
2018-04-17T16:42:34.667Z,26.62
2018-04-17T16:45:03.009Z,26.23
2018-04-17T16:47:31.311Z,25.52
2018-04-17T16:49:59.646Z,25.35
2018-04-17T16:52:27.965Z,24.57
2018-04-17T16:54:56.313Z,25.02
2018-04-17T16:57:24.642Z,24.13
2018-04-17T16:59:53.046Z,23.31
2018-04-17T17:02:21.431Z,22.46
2018-04-17T17:04:49.998Z,22.09
2018-04-17T17:07:18.313Z,21.95
2018-04-17T17:09:46.639Z,21.69
2018-04-17T17:12:14.948Z,21.35
2018-04-17T17:14:43.309Z,21.33
2018-04-17T17:17:11.639Z,21.19
2018-04-17T17:19:40.110Z,20.91
2018-04-17T17:22:08.415Z,20.67
2018-04-17T17:24:36.744Z,20.58
2018-04-17T17:27:05.073Z,20.33
2018-04-17T17:29:33.392Z,20.33
2018-04-17T17:32:01.761Z,20.18
2018-04-17T17:34:30.135Z,20.08
2018-04-17T17:36:58.509Z,20.07
2018-04-17T17:39:26.891Z,20.12
2018-04-17T17:41:55.279Z,19.98
2018-04-17T17:44:23.588Z,19.78
2018-04-17T17:46:51.928Z,19.79
2018-04-17T17:49:20.264Z,19.59
2018-04-17T17:51:48.567Z,19.35
2018-04-17T17:54:16.949Z,19.27
2018-04-17T17:56:45.272Z,19.11
2018-04-17T17:59:13.606Z,18.85
2018-04-17T18:01:41.946Z,18.76
2018-04-17T18:04:10.253Z,18.49
2018-04-17T18:06:38.605Z,18.39
2018-04-17T18:09:07.024Z,18.34
2018-04-17T18:11:35.401Z,18.33
2018-04-17T18:14:03.720Z,18.40
2018-04-17T18:16:32.093Z,18.25
2018-04-17T18:19:00.429Z,18.01
2018-04-17T18:21:28.761Z,17.75
2018-04-17T18:23:57.076Z,17.69
2018-04-17T18:26:25.417Z,17.69
2018-04-17T18:28:53.780Z,17.67
2018-04-17T18:31:22.123Z,17.46
2018-04-17T18:33:50.438Z,17.46
2018-04-17T18:36:18.823Z,17.22
2018-04-17T18:38:47.138Z,17.14
2018-04-17T18:41:15.524Z,17.03
2018-04-17T18:43:43.905Z,17.06
2018-04-17T18:46:12.333Z,16.75
2018-04-17T18:48:40.657Z,16.86
2018-04-17T18:51:08.992Z,16.71
2018-04-17T18:53:37.315Z,16.53
2018-04-17T18:56:05.692Z,16.42
2018-04-17T18:58:34.023Z,16.32
2018-04-17T19:01:02.357Z,16.34
2018-04-17T19:03:30.722Z,16.25
2018-04-17T19:05:59.069Z,16.29
2018-04-17T19:08:27.377Z,16.20
2018-04-17T19:10:55.725Z,16.03
2018-04-17T19:13:24.028Z,16.10
2018-04-17T19:15:52.358Z,15.93
2018-04-17T19:18:20.702Z,15.98
2018-04-17T19:20:49.057Z,16.07
2018-04-17T19:23:17.350Z,15.96
2018-04-17T19:25:45.729Z,15.74
2018-04-17T19:28:14.048Z,15.66
2018-04-17T19:30:42.393Z,15.83
2018-04-17T19:33:10.727Z,15.85
2018-04-17T19:35:39.045Z,15.66
2018-04-17T19:38:07.426Z,15.54
2018-04-17T19:40:35.785Z,15.39
2018-04-17T19:43:04.115Z,15.44
2018-04-17T19:45:32.517Z,15.37
2018-04-17T19:48:00.795Z,15.34
2018-04-17T19:50:29.142Z,15.20
2018-04-17T19:52:57.462Z,15.15
2018-04-17T19:55:25.876Z,15.16
2018-04-17T19:57:54.212Z,15.13
2018-04-17T20:00:22.522Z,15.34
2018-04-17T20:02:50.886Z,15.16
2018-04-17T20:05:19.266Z,15.12
2018-04-17T20:07:47.609Z,14.98
2018-04-17T20:10:16.018Z,14.92
2018-04-17T20:12:44.369Z,14.84
2018-04-17T20:15:12.717Z,14.77
2018-04-17T20:17:41.045Z,14.73
2018-04-17T20:20:09.370Z,14.63
2018-04-17T20:22:37.809Z,14.60
2018-04-17T20:25:06.193Z,14.79
2018-04-17T20:27:34.521Z,14.79
2018-04-17T20:30:02.858Z,14.53
2018-04-17T20:32:31.164Z,14.66
2018-04-17T20:34:59.592Z,14.41
2018-04-17T20:37:27.899Z,14.35
2018-04-17T20:39:56.242Z,14.14
2018-04-17T20:42:24.552Z,14.17
2018-04-17T20:44:52.892Z,14.33
2018-04-17T20:47:21.207Z,14.16
2018-04-17T20:49:49.555Z,14.15
2018-04-17T20:52:17.964Z,14.04
2018-04-17T20:54:46.418Z,13.98
2018-04-17T20:57:14.745Z,13.99
2018-04-17T20:59:43.042Z,13.80
2018-04-17T21:02:11.463Z,13.71
2018-04-17T21:04:39.826Z,13.58
2018-04-17T21:07:08.205Z,13.54
2018-04-17T21:09:36.586Z,13.56
2018-04-17T21:12:04.917Z,13.75
2018-04-17T21:14:33.707Z,13.49
2018-04-17T21:17:02.053Z,13.54
2018-04-17T21:19:30.641Z,13.46
2018-04-17T21:21:58.980Z,13.31
2018-04-17T21:24:27.311Z,13.41
2018-04-17T21:26:55.646Z,13.46
2018-04-17T21:29:24.055Z,13.44
2018-04-17T21:31:52.398Z,13.46
2018-04-17T21:34:20.706Z,13.21
2018-04-17T21:36:49.060Z,13.20
2018-04-17T21:39:17.398Z,12.99
2018-04-17T21:41:45.709Z,12.90
2018-04-17T21:44:14.054Z,12.87
2018-04-17T21:46:42.377Z,12.95
2018-04-17T21:49:10.722Z,12.89
2018-04-17T21:51:39.035Z,12.79
2018-04-17T21:54:07.369Z,12.76
2018-04-17T21:56:35.689Z,12.84
2018-04-17T21:59:04.033Z,12.99
2018-04-17T22:01:32.352Z,12.99
2018-04-17T22:04:00.704Z,12.88
2018-04-17T22:06:29.032Z,12.78
2018-04-17T22:08:57.361Z,12.61
2018-04-17T22:11:25.682Z,12.68
2018-04-17T22:13:54.053Z,12.87
2018-04-17T22:16:22.393Z,12.81
2018-04-17T22:18:50.726Z,12.77
2018-04-17T22:21:19.065Z,12.44
2018-04-17T22:23:47.381Z,12.20
2018-04-17T22:26:15.793Z,12.16
2018-04-17T22:28:44.129Z,12.08
2018-04-17T22:31:12.501Z,12.41
2018-04-17T22:33:40.800Z,12.36
2018-04-17T22:36:09.215Z,12.34
2018-04-17T22:38:37.516Z,12.42
2018-04-17T22:41:05.912Z,12.43
2018-04-17T22:43:34.206Z,12.47
2018-04-17T22:46:02.551Z,12.29
2018-04-17T22:48:30.858Z,12.11
2018-04-17T22:50:59.212Z,11.99
2018-04-17T22:53:27.513Z,11.89
2018-04-17T22:55:55.865Z,12.00
2018-04-17T22:58:24.181Z,12.18
2018-04-17T23:00:52.522Z,12.29
2018-04-17T23:03:20.845Z,11.96
2018-04-17T23:05:49.287Z,12.04
2018-04-17T23:08:17.663Z,11.93
2018-04-17T23:10:45.986Z,11.91
2018-04-17T23:13:14.329Z,12.08
2018-04-17T23:15:42.641Z,12.07
2018-04-17T23:18:11.029Z,12.04
2018-04-17T23:20:39.357Z,12.01
2018-04-17T23:23:07.785Z,11.78
2018-04-17T23:25:36.164Z,11.74
2018-04-17T23:28:04.504Z,11.44
2018-04-17T23:30:32.808Z,11.50
2018-04-17T23:33:01.151Z,11.73
2018-04-17T23:35:29.470Z,11.85
2018-04-17T23:37:57.811Z,11.39
2018-04-17T23:40:26.122Z,11.49
2018-04-17T23:42:54.462Z,11.36
2018-04-17T23:45:22.773Z,11.72
2018-04-17T23:47:51.127Z,11.65
2018-04-17T23:50:19.425Z,11.68
2018-04-17T23:52:47.741Z,11.47
2018-04-17T23:55:16.080Z,11.57
2018-04-17T23:57:44.403Z,11.36
